Time;durP1;ratioP1;P1;durP2;ratioP2;P2;SDS_P1;SDS_P2;PMS_P1;PMS_P2;Temp;Humidity;BMP_temperature;BMP_pressure;BME280_temperature;BME280_humidity;BME280_pressure;Samples;Min_cycle;Max_cycle;Signal;HPM_P1;HPM_P2
2020/12/01 00:01:32;;;;;;;23.90;15.32;;;;;;;8.85;48.41;100969.56;4975907;28;97841;-74
2020/12/01 00:04:00;;;;;;;19.25;14.48;;;;;;;8.86;48.51;100974.03;4978966;28;98256;-74
2020/12/01 00:06:31;;;;;;;18.77;14.00;;;;;;;8.87;48.47;100967.97;4978407;28;97864;-71
2020/12/01 00:08:58;;;;;;;19.55;14.10;;;;;;;8.89;48.36;100965.44;4976803;28;97214;-74
2020/12/01 00:11:26;;;;;;;19.70;14.18;;;;;;;8.89;48.39;100960.19;4971184;28;97306;-74
2020/12/01 00:13:54;;;;;;;16.95;12.77;;;;;;;8.88;48.38;100959.31;4967415;28;99664;-73
2020/12/01 00:16:21;;;;;;;18.45;13.85;;;;;;;8.87;48.64;100953.94;4968964;28;97883;-74
2020/12/01 00:18:48;;;;;;;19.70;14.48;;;;;;;8.88;48.63;100958.38;4967381;28;97142;-74
2020/12/01 00:21:18;;;;;;;20.45;13.57;;;;;;;8.88;48.59;100953.16;4969130;28;97309;-73
2020/12/01 00:24:04;;;;;;;22.27;14.38;;;;;;;8.89;48.78;100948.00;4968470;28;98276;-73
2020/12/01 00:26:31;;;;;;;19.70;13.82;;;;;;;8.89;48.43;100945.38;4963256;28;99451;-73
2020/12/01 00:28:59;;;;;;;22.40;14.90;;;;;;;8.91;48.56;100953.34;4967944;28;96802;-75
2020/12/01 00:31:26;;;;;;;18.98;13.30;;;;;;;8.91;48.52;100950.72;4971441;28;96958;-75
2020/12/01 00:33:53;;;;;;;20.17;14.45;;;;;;;8.93;48.84;100952.63;4967232;28;98035;-75
2020/12/01 00:36:26;;;;;;;20.95;14.32;;;;;;;8.91;48.62;100948.09;4970643;28;98988;-74
2020/12/01 00:38:54;;;;;;;21.42;14.15;;;;;;;8.92;48.81;100940.31;4967680;28;97165;-74
2020/12/01 00:41:21;;;;;;;22.02;14.57;;;;;;;8.93;48.69;100941.25;4969737;28;97289;-74
2020/12/01 00:43:49;;;;;;;20.35;14.88;;;;;;;8.92;49.16;100940.31;4966288;28;99063;-75
2020/12/01 00:46:16;;;;;;;21.20;15.07;;;;;;;8.92;49.03;100942.06;4977081;28;98876;-71
2020/12/01 00:48:43;;;;;;;22.13;15.43;;;;;;;8.94;48.95;100937.81;4971075;28;96557;-74
2020/12/01 00:51:11;;;;;;;23.77;15.80;;;;;;;8.94;48.85;100937.81;4971084;28;96794;-74
2020/12/01 00:53:40;;;;;;;22.40;15.23;;;;;;;8.95;48.66;100939.63;4971138;28;99189;-74
2020/12/01 00:56:08;;;;;;;22.33;14.85;;;;;;;8.95;48.69;100937.00;4975413;28;97878;-74
2020/12/01 00:58:36;;;;;;;20.45;14.80;;;;;;;8.94;48.87;100927.34;4974254;28;97240;-74
2020/12/01 01:01:13;;;;;;;24.60;16.13;;;;;;;8.95;48.98;100929.16;4973832;28;97273;-73
2020/12/01 01:03:40;;;;;;;24.92;16.85;;;;;;;8.95;48.87;100930.06;4965091;28;97953;-74
2020/12/01 01:06:10;;;;;;;22.92;16.00;;;;;;;8.93;48.72;100930.75;4972420;28;98420;-73
2020/12/01 01:08:57;;;;;;;21.48;15.45;;;;;;;8.92;49.08;100931.59;4968119;28;97956;-74
2020/12/01 01:11:30;;;;;;;25.33;16.73;;;;;;;8.91;49.14;100935.91;4981989;28;97453;-73
2020/12/01 01:13:58;;;;;;;25.88;16.40;;;;;;;8.91;49.02;100935.00;4977793;28;98984;-74
2020/12/01 01:16:26;;;;;;;24.83;16.17;;;;;;;8.92;49.33;100929.84;4986448;28;97797;-73
2020/12/01 01:18:53;;;;;;;22.45;15.60;;;;;;;8.90;49.00;100927.97;4978004;28;96971;-74
2020/12/01 01:21:23;;;;;;;26.92;17.40;;;;;;;8.91;48.81;100935.00;4978312;28;97285;-72
2020/12/01 01:23:51;;;;;;;26.52;17.45;;;;;;;8.90;49.18;100930.59;4976156;28;100110;-75
2020/12/01 01:26:20;;;;;;;26.42;17.02;;;;;;;8.88;49.27;100916.47;4981782;28;97845;-75
2020/12/01 01:28:47;;;;;;;27.63;19.58;;;;;;;8.88;49.11;100919.09;4975065;28;96776;-76
2020/12/01 01:31:18;;;;;;;26.10;17.40;;;;;;;8.86;49.20;100913.78;4979107;28;97066;-75
2020/12/01 01:33:45;;;;;;;28.15;18.10;;;;;;;8.85;49.17;100905.81;4977190;28;97874;-74
2020/12/01 01:36:13;;;;;;;29.52;18.65;;;;;;;8.83;49.25;100907.44;4976925;28;97856;-73
2020/12/01 01:38:40;;;;;;;29.58;19.27;;;;;;;8.82;49.45;100911.75;4977546;28;96800;-73
2020/12/01 01:41:08;;;;;;;31.75;19.55;;;;;;;8.79;49.54;100908.06;4977388;28;97147;-75
2020/12/01 01:43:37;;;;;;;31.15;18.85;;;;;;;8.77;49.57;100907.97;4976123;28;97898;-74
2020/12/01 01:46:36;;;;;;;29.95;19.90;;;;;;;8.73;49.69;100905.03;4954728;28;100273;-74
2020/12/01 01:49:05;;;;;;;31.83;19.98;;;;;;;8.66;49.93;100898.53;4971037;28;97268;-73
2020/12/01 01:51:34;;;;;;;31.42;20.15;;;;;;;8.65;49.78;100896.72;4967011;28;97205;-74
2020/12/01 01:54:21;;;;;;;31.58;20.73;;;;;;;8.65;49.81;100893.22;4965957;28;98046;-73
2020/12/01 01:56:51;;;;;;;29.60;19.92;;;;;;;8.61;49.98;100894.69;4969984;28;97988;-74
2020/12/01 01:59:20;;;;;;;29.50;20.58;;;;;;;8.59;50.10;100892.81;4976500;28;96757;-73
2020/12/01 02:01:47;;;;;;;31.23;21.38;;;;;;;8.59;49.86;100890.19;4970744;28;97702;-74
2020/12/01 02:04:15;;;;;;;30.40;20.10;;;;;;;8.57;49.71;100886.56;4971534;28;97906;-72
2020/12/01 02:06:46;;;;;;;31.63;20.52;;;;;;;8.55;49.90;100889.09;4978472;28;97776;-74
2020/12/01 02:09:15;;;;;;;32.58;20.95;;;;;;;8.55;49.95;100878.63;4979703;28;96745;-72
2020/12/01 02:11:44;;;;;;;32.97;20.02;;;;;;;8.54;49.35;100887.28;4979530;28;96864;-71
2020/12/01 02:14:14;;;;;;;31.73;21.48;;;;;;;8.56;49.79;100884.78;4977938;28;98154;-73
2020/12/01 02:16:44;;;;;;;32.63;20.25;;;;;;;8.54;50.04;100881.16;4978559;28;98126;-74
2020/12/01 02:19:17;;;;;;;28.23;19.65;;;;;;;8.53;49.92;100872.41;4975376;28;97402;-74
2020/12/01 02:21:44;;;;;;;31.27;21.02;;;;;;;8.55;49.80;100882.97;4979001;28;96877;-74
2020/12/01 02:24:16;;;;;;;30.63;20.15;;;;;;;8.54;49.90;100875.94;4974886;28;98234;-74
2020/12/01 02:26:46;;;;;;;32.80;20.55;;;;;;;8.55;50.11;100869.88;4982198;28;99221;-75
2020/12/01 02:29:18;;;;;;;33.13;21.33;;;;;;;8.53;49.79;100863.63;4975022;28;97355;-74
2020/12/01 02:31:46;;;;;;;31.33;20.15;;;;;;;8.52;50.08;100865.34;4982824;28;96844;-73
2020/12/01 02:34:17;;;;;;;32.17;20.65;;;;;;;8.52;50.24;100867.94;4975051;28;99693;-74
2020/12/01 02:36:45;;;;;;;28.27;19.60;;;;;;;8.51;49.77;100860.00;4978126;28;97104;-74
2020/12/01 02:39:13;;;;;;;33.88;21.20;;;;;;;8.52;50.08;100862.72;4980507;28;98476;-74
2020/12/01 02:41:41;;;;;;;29.90;19.73;;;;;;;8.55;50.06;100859.41;4980155;28;97165;-74
2020/12/01 02:44:10;;;;;;;30.42;21.58;;;;;;;8.57;49.72;100852.53;4976092;28;98087;-73
2020/12/01 02:46:37;;;;;;;30.83;20.05;;;;;;;8.57;49.63;100860.41;4980426;28;97973;-73
2020/12/01 02:49:06;;;;;;;35.45;22.73;;;;;;;8.58;49.88;100857.88;4974376;28;97393;-73
2020/12/01 02:51:34;;;;;;;34.63;22.60;;;;;;;8.59;49.82;100853.56;4973138;28;96743;-73
2020/12/01 02:54:02;;;;;;;30.42;20.65;;;;;;;8.60;50.06;100850.09;4983452;28;97891;-72
2020/12/01 02:56:29;;;;;;;28.45;19.08;;;;;;;8.60;49.99;100853.63;4975314;28;97963;-74
2020/12/01 02:58:57;;;;;;;32.08;20.98;;;;;;;8.59;49.92;100851.84;4972952;28;97206;-73
2020/12/01 03:01:26;;;;;;;34.22;22.08;;;;;;;8.60;49.86;100850.09;4973643;28;97460;-73
2020/12/01 03:03:54;;;;;;;33.92;20.45;;;;;;;8.61;49.72;100844.94;4977033;28;98111;-74
2020/12/01 03:06:22;;;;;;;36.45;21.92;;;;;;;8.61;50.13;100846.69;4974708;28;99110;-73
2020/12/01 03:08:49;;;;;;;33.50;20.92;;;;;;;8.61;49.98;100844.06;4977773;28;97744;-71
2020/12/01 03:11:17;;;;;;;34.83;21.73;;;;;;;8.61;50.12;100847.56;4979198;28;96782;-73
2020/12/01 03:13:45;;;;;;;31.30;20.23;;;;;;;8.61;49.79;100846.69;4980474;28;97868;-72
2020/12/01 03:16:13;;;;;;;31.50;21.02;;;;;;;8.61;50.06;100851.94;4974580;28;98384;-72
2020/12/01 03:18:42;;;;;;;32.58;20.77;;;;;;;8.59;49.69;100856.16;4973444;28;97364;-73
2020/12/01 03:21:11;;;;;;;31.80;19.05;;;;;;;8.58;50.10;100842.16;4977940;28;98083;-74
2020/12/01 03:23:39;;;;;;;31.42;20.30;;;;;;;8.59;50.17;100836.13;4977550;28;98126;-73
2020/12/01 03:26:07;;;;;;;36.88;21.85;;;;;;;8.58;49.77;100847.41;4979512;28;98884;-73
2020/12/01 03:28:35;;;;;;;32.60;20.75;;;;;;;8.54;50.14;100844.50;4974881;28;97555;-73
2020/12/01 03:31:21;;;;;;;32.22;20.25;;;;;;;8.53;50.03;100840.06;4980506;28;96811;-73
2020/12/01 03:33:50;;;;;;;30.60;20.27;;;;;;;8.50;49.98;100843.41;4974282;28;101348;-72
2020/12/01 03:36:18;;;;;;;35.47;20.75;;;;;;;8.49;50.17;100841.59;4982835;28;98944;-73
2020/12/01 03:38:45;;;;;;;35.13;21.13;;;;;;;8.47;50.08;100837.97;4976179;28;96834;-72
2020/12/01 03:41:13;;;;;;;34.08;20.65;;;;;;;8.48;50.50;100841.50;4977367;28;96940;-73
2020/12/01 03:43:41;;;;;;;34.72;20.48;;;;;;;8.49;50.23;100840.69;4971420;28;98448;-73
2020/12/01 03:46:08;;;;;;;33.47;20.95;;;;;;;8.48;50.13;100834.56;4977502;28;99372;-74
2020/12/01 03:48:36;;;;;;;35.22;21.13;;;;;;;8.50;50.17;100837.28;4973705;28;96969;-73
2020/12/01 03:51:04;;;;;;;32.03;20.08;;;;;;;8.51;50.27;100844.31;4975400;28;96811;-74
2020/12/01 03:53:31;;;;;;;38.40;21.63;;;;;;;8.52;50.26;100846.13;4978768;28;99392;-73
2020/12/01 03:55:59;;;;;;;32.78;21.67;;;;;;;8.50;50.27;100842.50;4979501;28;97734;-73
2020/12/01 03:58:27;;;;;;;38.15;22.20;;;;;;;8.50;50.21;100843.41;4970278;28;97210;-73
2020/12/01 04:00:54;;;;;;;35.10;21.48;;;;;;;8.50;50.24;100846.03;4972847;28;96724;-73
2020/12/01 04:03:22;;;;;;;38.70;23.88;;;;;;;8.51;50.13;100845.22;4978060;28;99712;-73
2020/12/01 04:05:49;;;;;;;43.85;26.35;;;;;;;8.51;50.12;100833.84;4969671;28;98208;-73
2020/12/01 04:08:17;;;;;;;35.55;21.40;;;;;;;8.50;50.40;100842.50;4970971;28;97419;-73
2020/12/01 04:10:45;;;;;;;35.90;21.95;;;;;;;8.50;50.25;100837.28;4971676;28;97698;-73
2020/12/01 04:13:12;;;;;;;36.15;22.88;;;;;;;8.51;50.38;100841.69;4968830;28;98155;-74
2020/12/01 04:15:40;;;;;;;35.25;21.13;;;;;;;8.53;50.13;100840.97;4967619;28;97223;-74
2020/12/01 04:18:08;;;;;;;40.30;21.30;;;;;;;8.53;50.20;100843.59;4967037;28;96680;-72
2020/12/01 04:20:36;;;;;;;36.30;21.65;;;;;;;8.54;50.25;100844.50;4976293;28;96944;-72
2020/12/01 04:23:03;;;;;;;33.67;20.88;;;;;;;8.55;50.25;100838.44;4979218;28;98949;-72
2020/12/01 04:25:31;;;;;;;33.45;22.40;;;;;;;8.57;50.33;100832.50;4980309;28;99126;-73
2020/12/01 04:27:59;;;;;;;34.22;21.50;;;;;;;8.56;50.32;100837.66;4979315;28;98528;-73
2020/12/01 04:30:26;;;;;;;37.35;21.60;;;;;;;8.57;50.23;100834.22;4979575;28;97382;-73
2020/12/01 04:32:54;;;;;;;34.80;21.05;;;;;;;8.57;50.41;100828.97;4980227;28;97936;-74
2020/12/01 04:35:22;;;;;;;35.22;21.75;;;;;;;8.58;50.09;100836.00;4976961;28;97910;-73
2020/12/01 04:37:49;;;;;;;36.17;22.27;;;;;;;8.57;50.29;100834.22;4973697;28;97115;-73
2020/12/01 04:40:39;;;;;;;32.15;21.40;;;;;;;8.55;50.53;100833.22;4980643;28;96857;-73
2020/12/01 04:43:12;;;;;;;35.05;21.40;;;;;;;8.53;50.17;100833.13;4976564;28;98982;-73
2020/12/01 04:45:59;;;;;;;37.97;22.45;;;;;;;8.53;50.24;100830.50;4976053;28;98909;-72
2020/12/01 04:48:37;;;;;;;33.05;21.35;;;;;;;8.52;50.30;100838.28;4978437;28;97283;-73
2020/12/01 04:51:19;;;;;;;35.92;21.50;;;;;;;8.50;50.34;100834.66;4959597;28;96953;-73
2020/12/01 04:54:16;;;;;;;31.20;20.02;;;;;;;8.48;50.85;100838.88;4971040;28;98080;-72
2020/12/01 04:57:11;;;;;;;30.05;19.98;;;;;;;8.51;50.34;100839.06;4969484;28;99147;-73
2020/12/01 04:59:48;;;;;;;34.65;21.20;;;;;;;8.48;50.72;100833.66;4973865;28;97173;-71
2020/12/01 05:02:51;;;;;;;32.25;20.95;;;;;;;8.44;50.42;100832.56;4972327;28;96896;-71
2020/12/01 05:05:53;;;;;;;32.50;20.55;;;;;;;8.45;50.19;100833.47;4970597;28;99218;-73
2020/12/01 05:08:36;;;;;;;34.63;21.73;;;;;;;8.44;50.28;100829.03;4967162;28;98003;-73
2020/12/01 05:11:11;;;;;;;34.17;21.60;;;;;;;8.44;50.65;100836.88;4967615;28;97447;-73
2020/12/01 05:13:39;;;;;;;33.38;20.95;;;;;;;8.46;50.70;100835.25;4971441;28;97328;-72
2020/12/01 05:16:17;;;;;;;32.08;20.23;;;;;;;8.46;50.26;100835.25;4972544;28;97941;-73
2020/12/01 05:18:44;;;;;;;38.40;21.58;;;;;;;8.47;50.52;100839.69;4973995;28;99094;-74
2020/12/01 05:21:12;;;;;;;37.05;21.60;;;;;;;8.47;50.67;100842.28;4970296;28;97017;-73
2020/12/01 05:23:42;;;;;;;33.55;21.17;;;;;;;8.48;50.53;100846.75;4971521;28;96904;-73
2020/12/01 05:26:12;;;;;;;41.08;23.55;;;;;;;8.46;50.42;100843.13;4972175;28;98982;-73
2020/12/01 05:28:59;;;;;;;50.65;30.10;;;;;;;8.44;50.79;100847.34;4964514;28;97223;-73
2020/12/01 05:31:39;;;;;;;37.10;22.25;;;;;;;8.43;50.85;100849.06;4968159;28;97490;-73
2020/12/01 05:34:16;;;;;;;32.78;21.25;;;;;;;8.44;50.96;100857.81;4970144;28;97110;-73
2020/12/01 05:36:44;;;;;;;37.78;21.60;;;;;;;8.44;50.79;100860.44;4969126;28;97821;-73
2020/12/01 05:39:17;;;;;;;33.22;21.63;;;;;;;8.41;50.60;100860.25;4968819;28;99050;-73
2020/12/01 05:41:46;;;;;;;34.25;21.50;;;;;;;8.44;50.42;100863.06;4973732;28;97149;-73
2020/12/01 05:44:21;;;;;;;35.38;23.27;;;;;;;8.45;50.63;100854.41;5014559;22;99302;-74
2020/12/01 05:46:52;;;;;;;36.97;22.08;;;;;;;8.44;50.76;100858.75;5007290;28;98183;-73
2020/12/01 05:49:35;;;;;;;39.38;23.25;;;;;;;8.46;50.68;100859.75;5011705;28;98002;-73
2020/12/01 05:52:04;;;;;;;34.63;22.25;;;;;;;8.48;50.56;100865.06;5007722;28;97196;-72
2020/12/01 05:54:35;;;;;;;33.90;21.55;;;;;;;8.47;50.55;100858.91;4995677;28;96685;-74
2020/12/01 05:57:03;;;;;;;35.92;21.85;;;;;;;8.47;50.74;100852.75;5014376;28;99215;-73
2020/12/01 05:59:32;;;;;;;32.85;20.70;;;;;;;8.49;50.69;100856.38;4989811;28;99428;-75
2020/12/01 06:02:02;;;;;;;32.40;20.70;;;;;;;8.49;50.77;100857.31;4990679;28;96694;-73
2020/12/01 06:04:33;;;;;;;37.65;23.52;;;;;;;8.49;50.59;100859.91;4990423;28;96947;-75
2020/12/01 06:07:12;;;;;;;33.13;21.10;;;;;;;8.49;51.00;100866.84;4989436;28;98711;-73
2020/12/01 06:09:54;;;;;;;32.25;20.77;;;;;;;8.49;50.52;100870.38;4995805;28;97972;-73
2020/12/01 06:12:28;;;;;;;30.45;20.75;;;;;;;8.52;50.50;100867.06;4991705;28;97330;-72
2020/12/01 06:14:59;;;;;;;34.10;20.65;;;;;;;8.53;50.60;100869.78;4997992;28;96912;-74
2020/12/01 06:17:36;;;;;;;34.92;22.05;;;;;;;8.52;50.91;100865.34;4992113;28;97014;-73
2020/12/01 06:20:14;;;;;;;29.52;20.15;;;;;;;8.53;50.45;100875.00;4989874;28;97883;-73
2020/12/01 06:23:17;;;;;;;30.58;19.85;;;;;;;8.52;50.84;100867.06;5003350;28;96813;-74
2020/12/01 06:26:22;;;;;;;31.15;20.45;;;;;;;8.54;50.66;100875.94;4984824;28;96609;-73
2020/12/01 06:29:02;;;;;;;33.83;21.00;;;;;;;8.56;50.85;100871.69;4972286;28;99232;-74
2020/12/01 06:31:51;;;;;;;31.30;19.77;;;;;;;8.54;50.62;100874.19;4990216;28;96914;-71
2020/12/01 06:34:59;;;;;;;103.55;52.50;;;;;;;8.55;50.70;100885.56;4994978;28;97084;-73
2020/12/01 06:37:32;;;;;;;62.22;33.90;;;;;;;8.54;50.67;100883.78;4986034;28;97443;-74
2020/12/01 06:40:12;;;;;;;45.75;26.40;;;;;;;8.53;50.73;100890.72;4994995;28;98135;-74
2020/12/01 06:42:42;;;;;;;38.47;24.35;;;;;;;8.56;50.44;100890.03;4993353;28;99319;-74
2020/12/01 06:45:22;;;;;;;33.55;21.15;;;;;;;8.56;50.76;100890.03;4998384;28;97248;-74
2020/12/01 06:47:53;;;;;;;109.85;53.67;;;;;;;8.56;50.65;100888.28;5001950;28;97260;-73
2020/12/01 06:50:22;;;;;;;49.55;28.80;;;;;;;8.57;50.54;100892.72;5000788;28;97626;-74
2020/12/01 06:52:57;;;;;;;38.30;23.38;;;;;;;8.55;50.94;100894.34;4996059;28;99662;-73
2020/12/01 06:55:50;;;;;;;36.50;23.33;;;;;;;8.51;50.86;100892.34;4995435;28;97202;-73
2020/12/01 06:58:32;;;;;;;32.85;21.88;;;;;;;8.53;50.72;100900.28;4987145;28;97390;-74
2020/12/01 07:01:25;;;;;;;33.72;21.67;;;;;;;8.51;50.82;100905.44;4990297;28;98379;-74
2020/12/01 07:04:22;;;;;;;34.65;21.65;;;;;;;8.52;50.88;100915.06;4982038;28;98609;-74
2020/12/01 07:06:52;;;;;;;34.92;20.83;;;;;;;8.55;50.43;100906.53;4979631;28;97233;-73
2020/12/01 07:09:22;;;;;;;30.73;20.83;;;;;;;8.56;50.55;100901.38;4992664;28;96755;-74
2020/12/01 07:11:59;;;;;;;32.63;20.45;;;;;;;8.57;50.79;100904.91;4988319;28;97918;-74
2020/12/01 07:14:36;;;;;;;34.80;21.50;;;;;;;8.58;50.46;100901.47;4987418;28;98075;-74
2020/12/01 07:17:16;;;;;;;32.13;21.60;;;;;;;8.59;50.76;100911.16;4993938;28;97128;-73
2020/12/01 07:20:08;;;;;;;29.52;19.88;;;;;;;8.57;50.60;100908.44;4989995;28;97101;-73
2020/12/01 07:22:42;;;;;;;29.77;19.25;;;;;;;8.56;50.78;100905.72;4984415;28;97908;-74
2020/12/01 07:25:15;;;;;;;36.30;23.67;;;;;;;8.58;50.92;100911.94;4990963;28;97409;-74
2020/12/01 07:27:49;;;;;;;44.00;25.90;;;;;;;8.59;50.95;100908.53;4994225;28;97745;-74
2020/12/01 07:30:19;;;;;;;34.47;22.25;;;;;;;8.63;50.56;100907.91;4989506;28;96719;-74
2020/12/01 07:32:50;;;;;;;34.17;21.77;;;;;;;8.63;50.65;100907.91;4985366;28;98048;-74
2020/12/01 07:35:35;;;;;;;32.42;20.92;;;;;;;8.62;50.74;100912.25;4989728;28;99333;-74
2020/12/01 07:38:11;;;;;;;33.50;20.58;;;;;;;8.65;50.57;100916.78;4988763;28;96687;-74
2020/12/01 07:40:45;;;;;;;31.95;20.23;;;;;;;8.65;50.68;100916.78;4988883;28;96950;-75
2020/12/01 07:43:16;;;;;;;32.33;20.83;;;;;;;8.67;50.30;100923.91;4989981;28;98973;-74
2020/12/01 07:45:43;;;;;;;30.17;20.27;;;;;;;8.67;50.34;100917.75;5004734;28;100103;-74
2020/12/01 07:48:13;;;;;;;32.42;20.17;;;;;;;8.66;50.76;100926.44;4997589;28;97202;-75
2020/12/01 07:50:42;;;;;;;29.90;20.83;;;;;;;8.65;50.30;100927.25;4996851;28;96962;-73
2020/12/01 07:53:11;;;;;;;30.35;19.63;;;;;;;8.63;50.65;100929.75;5002329;28;99204;-74
2020/12/01 07:55:42;;;;;;;29.95;18.92;;;;;;;8.63;50.79;100934.09;4997968;28;98106;-75
2020/12/01 07:58:16;;;;;;;29.15;19.83;;;;;;;8.64;50.82;100936.81;5002386;28;96886;-74
2020/12/01 08:01:14;;;;;;;35.35;21.42;;;;;;;8.67;50.86;100936.06;5008118;28;96882;-75
2020/12/01 08:03:42;;;;;;;76.43;40.55;;;;;;;8.71;50.53;100938.09;5012823;27;97994;-74
2020/12/01 08:06:12;;;;;;;75.07;41.00;;;;;;;8.73;50.50;100931.22;4998353;28;102165;-74
2020/12/01 08:08:42;;;;;;;41.75;26.05;;;;;;;8.75;50.31;100945.34;4994825;28;96729;-75
2020/12/01 08:11:12;;;;;;;32.85;21.48;;;;;;;8.75;50.38;100945.34;5000091;28;97161;-75
2020/12/01 08:13:39;;;;;;;30.00;20.20;;;;;;;8.76;50.19;100947.13;5015681;27;99266;-75
2020/12/01 08:16:14;;;;;;;30.48;19.98;;;;;;;8.77;50.31;100954.19;4998048;28;97671;-74
2020/12/01 08:18:43;;;;;;;32.95;20.15;;;;;;;8.79;50.43;100952.59;4997238;28;96773;-74
2020/12/01 08:21:11;;;;;;;29.02;19.23;;;;;;;8.80;50.31;100944.81;4992023;28;96849;-75
2020/12/01 08:23:43;;;;;;;28.85;19.27;;;;;;;8.81;50.04;100961.44;5002400;28;98641;-75
2020/12/01 08:26:13;;;;;;;30.13;20.52;;;;;;;8.82;50.65;100963.25;5021825;28;100168;-75
2020/12/01 08:28:44;;;;;;;26.75;18.52;;;;;;;8.83;50.45;100971.19;5002757;28;97487;-74
2020/12/01 08:31:19;;;;;;;32.92;19.77;;;;;;;8.82;50.12;100969.38;4998891;28;97294;-75
2020/12/01 08:34:12;;;;;;;30.58;20.05;;;;;;;8.82;50.54;100977.25;4994378;28;97302;-75
2020/12/01 08:36:56;;;;;;;27.70;19.02;;;;;;;8.86;50.52;100973.09;4997154;28;99202;-75
2020/12/01 08:39:41;;;;;;;33.15;20.02;;;;;;;8.88;50.36;100977.66;5000581;28;96981;-75
2020/12/01 08:42:18;;;;;;;27.40;19.52;;;;;;;8.91;50.69;100982.16;4999334;28;97092;-75
2020/12/01 08:44:54;;;;;;;30.42;20.17;;;;;;;8.92;49.95;100983.97;5001169;28;98992;-75
2020/12/01 08:47:24;;;;;;;33.90;20.52;;;;;;;8.95;50.27;100982.44;4993190;28;97862;-74
2020/12/01 08:49:52;;;;;;;33.47;20.25;;;;;;;8.97;50.08;100986.06;5016758;28;96791;-73
2020/12/01 08:52:32;;;;;;;29.38;20.17;;;;;;;8.99;50.47;100983.53;5004545;28;97643;-74
2020/12/01 08:55:06;;;;;;;30.10;19.35;;;;;;;8.99;50.23;100984.47;4997200;28;98094;-75
2020/12/01 08:57:35;;;;;;;30.15;22.02;;;;;;;9.02;50.33;100996.81;5016024;28;98316;-75
2020/12/01 09:00:20;;;;;;;60.45;35.30;;;;;;;9.05;49.78;101004.91;5000580;28;96836;-74
2020/12/01 09:02:49;;;;;;;49.97;29.63;;;;;;;9.05;49.87;100997.03;5003607;28;97365;-75
2020/12/01 09:05:27;;;;;;;29.60;20.33;;;;;;;9.07;50.26;100998.00;5002431;28;99083;-75
2020/12/01 09:08:05;;;;;;;28.00;18.65;;;;;;;9.08;50.31;100999.84;4986822;28;98958;-74
2020/12/01 09:10:34;;;;;;;30.52;19.15;;;;;;;9.11;49.99;101000.94;4998862;28;97307;-75
2020/12/01 09:13:10;;;;;;;37.90;19.25;;;;;;;9.13;49.75;100998.41;5000566;28;97341;-75
2020/12/01 09:15:57;;;;;;;31.13;19.13;;;;;;;9.16;49.70;101003.81;5004726;28;99164;-75
2020/12/01 09:18:47;;;;;;;47.22;21.00;;;;;;;9.18;49.93;101005.72;4999111;28;98100;-75
2020/12/01 09:24:15;;;;;;;29.90;18.75;;;;;;;9.22;50.01;101009.44;4996650;28;96774;-74
2020/12/01 09:26:44;;;;;;;30.45;19.48;;;;;;;9.23;50.01;101020.03;4995711;28;99692;-75
2020/12/01 09:29:11;;;;;;;45.70;24.95;;;;;;;9.25;49.52;101016.59;4998803;28;99312;-75
2020/12/01 09:31:40;;;;;;;31.83;20.10;;;;;;;9.26;49.74;101019.31;4999270;28;97007;-76
2020/12/01 09:34:08;;;;;;;27.80;19.38;;;;;;;9.28;49.86;101022.94;5009086;28;97078;-73
2020/12/01 09:36:57;;;;;;;25.83;17.83;;;;;;;9.26;50.01;101019.31;4996505;28;97705;-74
2020/12/01 09:39:43;;;;;;;26.58;18.38;;;;;;;9.26;50.25;101019.31;4992137;28;99165;-74
2020/12/01 09:42:15;;;;;;;26.02;17.98;;;;;;;9.26;49.50;101021.94;5001088;28;97228;-74
2020/12/01 09:44:59;;;;;;;29.13;19.42;;;;;;;9.28;49.90;101030.81;4999723;28;97015;-74
2020/12/01 09:47:35;;;;;;;26.58;18.00;;;;;;;9.26;50.10;101026.28;5011393;28;97819;-74
2020/12/01 09:50:06;;;;;;;31.13;19.05;;;;;;;9.26;49.64;101024.56;5014420;28;99499;-75
2020/12/01 09:52:42;;;;;;;27.25;18.00;;;;;;;9.30;49.77;101031.81;4996926;28;97607;-74
2020/12/01 09:55:17;;;;;;;28.13;18.92;;;;;;;9.32;49.38;101034.53;5016461;28;97674;-75
2020/12/01 09:57:54;;;;;;;25.33;17.45;;;;;;;9.32;49.79;101027.56;4996375;28;98206;-75
2020/12/01 10:08:47;;;;;;;27.65;19.65;;;;;;;9.44;49.99;101030.94;4955591;28;101168;-75
2020/12/01 10:11:35;;;;;;;75.10;38.30;;;;;;;9.49;49.68;101041.72;4990626;28;98932;-75
2020/12/01 10:37:04;;;;;;;25.45;17.40;;;;;;;9.66;48.99;101041.94;4940951;28;97862;-73
2020/12/01 10:39:33;;;;;;;26.48;17.63;;;;;;;9.65;49.11;101049.72;4969178;28;97287;-74
2020/12/01 10:42:00;;;;;;;26.58;17.25;;;;;;;9.62;48.94;101050.41;4995652;28;98351;-74
2020/12/01 10:44:28;;;;;;;24.10;17.52;;;;;;;9.63;49.32;101056.56;5001536;28;99178;-74
2020/12/01 10:46:56;;;;;;;27.00;17.90;;;;;;;9.62;49.45;101050.41;4992796;28;97315;-73
2020/12/01 10:49:23;;;;;;;55.45;32.38;;;;;;;9.65;49.84;101049.72;4999507;28;96694;-76
2020/12/01 10:51:51;;;;;;;53.45;30.38;;;;;;;9.65;49.47;101062.81;4995911;28;99400;-75
2020/12/01 10:54:18;;;;;;;34.15;20.50;;;;;;;9.65;49.46;101063.69;4993293;28;98723;-75
2020/12/01 10:56:51;;;;;;;27.95;18.38;;;;;;;9.68;49.57;101066.53;4995945;28;97100;-74
2020/12/01 10:59:20;;;;;;;27.23;17.52;;;;;;;9.69;48.92;101070.94;4997661;28;97236;-75
2020/12/01 11:01:49;;;;;;;26.75;17.52;;;;;;;9.71;49.59;101066.72;4993635;28;97665;-74
2020/12/01 11:04:16;;;;;;;26.63;17.50;;;;;;;9.71;49.34;101064.09;4992849;28;97053;-74
2020/12/01 11:06:44;;;;;;;25.05;18.15;;;;;;;9.70;48.94;101072.78;4998792;28;97053;-74
2020/12/01 11:09:12;;;;;;;31.15;19.15;;;;;;;9.71;49.57;101076.28;4988962;28;97431;-73
2020/12/01 11:11:40;;;;;;;29.30;18.17;;;;;;;9.68;49.18;101078.72;4991538;28;97935;-75
2020/12/01 11:14:08;;;;;;;26.90;18.73;;;;;;;9.69;49.20;101078.81;4989389;28;98858;-74
2020/12/01 11:16:36;;;;;;;31.98;20.02;;;;;;;9.70;49.71;101075.41;4989666;28;96951;-75
2020/12/01 11:19:05;;;;;;;32.13;19.33;;;;;;;9.72;49.45;101084.28;4989242;28;97466;-74
2020/12/01 11:21:34;;;;;;;29.73;18.95;;;;;;;9.71;49.05;101076.28;5005213;28;99436;-74
2020/12/01 11:24:03;;;;;;;31.80;18.15;;;;;;;9.69;49.12;101081.44;4989518;28;99099;-74
2020/12/01 11:26:31;;;;;;;26.60;18.33;;;;;;;9.72;49.30;101078.13;4989379;28;96667;-74
2020/12/01 11:28:58;;;;;;;31.15;18.52;;;;;;;9.75;49.04;101084.44;4988953;28;97080;-74
2020/12/01 11:31:27;;;;;;;31.35;19.40;;;;;;;9.77;49.14;101082.84;4989266;28;97924;-74
2020/12/01 11:34:01;;;;;;;27.40;17.00;;;;;;;9.80;49.48;101082.09;4989412;28;97773;-74
2020/12/01 11:36:29;;;;;;;26.48;17.58;;;;;;;9.82;49.58;101091.88;4989649;28;96779;-75
2020/12/01 11:38:57;;;;;;;29.05;17.58;;;;;;;9.82;49.46;101099.75;4995858;28;96757;-75
2020/12/01 11:41:25;;;;;;;31.90;17.83;;;;;;;9.82;49.04;101097.13;5012034;28;98967;-74
2020/12/01 11:43:53;;;;;;;25.63;16.63;;;;;;;9.80;49.72;101097.81;5035706;22;98668;-72
2020/12/01 11:46:20;;;;;;;26.25;17.00;;;;;;;9.79;49.30;101104.81;5006121;28;96882;-73
2020/12/01 11:48:48;;;;;;;24.80;17.13;;;;;;;9.80;49.54;101098.75;5007816;28;97447;-73
2020/12/01 11:51:16;;;;;;;25.38;17.05;;;;;;;9.81;49.69;101105.81;5004073;28;98446;-72
2020/12/01 11:53:44;;;;;;;34.72;18.27;;;;;;;9.80;49.12;101105.69;4998409;28;98223;-74
2020/12/01 11:56:13;;;;;;;31.77;18.15;;;;;;;9.79;49.18;101115.31;5005506;28;96872;-72
2020/12/01 11:58:59;;;;;;;26.33;16.98;;;;;;;9.80;49.81;101111.88;4999824;28;96788;-72
2020/12/01 12:01:28;;;;;;;29.30;18.63;;;;;;;9.82;49.36;101118.13;5005608;28;97063;-72
2020/12/01 12:03:56;;;;;;;25.13;17.40;;;;;;;9.83;49.00;101119.94;4997745;28;97844;-71
2020/12/01 12:06:23;;;;;;;27.75;16.58;;;;;;;9.84;48.93;101121.75;5008095;28;97784;-72
2020/12/01 12:08:51;;;;;;;28.80;17.52;;;;;;;9.82;49.20;101123.34;5002328;28;96818;-73
2020/12/01 12:11:18;;;;;;;32.85;17.60;;;;;;;9.83;49.22;101130.44;5003177;28;96926;-72
2020/12/01 12:13:46;;;;;;;32.25;17.23;;;;;;;9.82;49.04;101125.97;5002166;28;98405;-72
2020/12/01 12:16:15;;;;;;;29.38;18.13;;;;;;;9.83;49.83;101119.94;5002409;28;96694;-73